sensor_id;sensor_type;location;lat;lon;timestamp;pressure;altitude;pressure_sealevel;temperature;humidity
45275;BME280;31019;43.780;25.948;2023-03-16T00:01:04;100093.50;;;7.17;100.00
45275;BME280;31019;43.780;25.948;2023-03-16T00:03:31;100094.06;;;7.06;100.00
45275;BME280;31019;43.780;25.948;2023-03-16T00:05:59;100093.91;;;7.14;100.00
45275;BME280;31019;43.780;25.948;2023-03-16T00:08:26;100089.59;;;7.00;100.00
45275;BME280;31019;43.780;25.948;2023-03-16T00:10:53;100099.13;;;7.01;100.00
45275;BME280;31019;43.780;25.948;2023-03-16T00:13:21;100093.44;;;6.97;100.00
45275;BME280;31019;43.780;25.948;2023-03-16T00:15:49;100088.94;;;6.91;100.00
45275;BME280;31019;43.780;25.948;2023-03-16T00:18:16;100094.97;;;6.78;100.00
45275;BME280;31019;43.780;25.948;2023-03-16T00:20:43;100100.84;;;6.80;100.00
45275;BME280;31019;43.780;25.948;2023-03-16T00:23:11;100103.72;;;6.85;100.00
45275;BME280;31019;43.780;25.948;2023-03-16T00:25:38;100098.78;;;6.69;100.00
45275;BME280;31019;43.780;25.948;2023-03-16T00:28:06;100111.81;;;6.77;100.00
45275;BME280;31019;43.780;25.948;2023-03-16T00:30:32;100122.81;;;6.81;100.00
45275;BME280;31019;43.780;25.948;2023-03-16T00:32:59;100122.16;;;6.72;100.00
45275;BME280;31019;43.780;25.948;2023-03-16T00:35:26;100120.56;;;6.78;100.00
45275;BME280;31019;43.780;25.948;2023-03-16T00:37:53;100125.59;;;6.73;100.00
45275;BME280;31019;43.780;25.948;2023-03-16T00:40:23;100119.31;;;6.74;100.00
45275;BME280;31019;43.780;25.948;2023-03-16T00:42:49;100108.13;;;6.72;100.00
45275;BME280;31019;43.780;25.948;2023-03-16T00:45:16;100099.34;;;6.58;100.00
45275;BME280;31019;43.780;25.948;2023-03-16T00:47:43;100104.88;;;6.70;100.00
45275;BME280;31019;43.780;25.948;2023-03-16T00:50:10;100107.41;;;6.84;100.00
45275;BME280;31019;43.780;25.948;2023-03-16T00:52:37;100115.47;;;6.76;100.00
45275;BME280;31019;43.780;25.948;2023-03-16T00:55:04;100119.91;;;6.69;100.00
45275;BME280;31019;43.780;25.948;2023-03-16T00:57:32;100118.66;;;6.65;100.00
45275;BME280;31019;43.780;25.948;2023-03-16T00:59:59;100126.19;;;6.68;100.00
45275;BME280;31019;43.780;25.948;2023-03-16T01:02:33;100129.63;;;6.69;100.00
45275;BME280;31019;43.780;25.948;2023-03-16T01:05:01;100135.91;;;6.68;100.00
45275;BME280;31019;43.780;25.948;2023-03-16T01:07:30;100141.41;;;6.66;100.00
45275;BME280;31019;43.780;25.948;2023-03-16T01:09:57;100141.63;;;6.71;100.00
45275;BME280;31019;43.780;25.948;2023-03-16T01:12:23;100138.56;;;6.68;100.00
45275;BME280;31019;43.780;25.948;2023-03-16T01:14:51;100134.75;;;6.77;100.00
45275;BME280;31019;43.780;25.948;2023-03-16T01:17:19;100127.31;;;6.87;100.00
45275;BME280;31019;43.780;25.948;2023-03-16T01:19:47;100135.56;;;6.77;100.00
45275;BME280;31019;43.780;25.948;2023-03-16T01:22:16;100130.94;;;6.86;100.00
45275;BME280;31019;43.780;25.948;2023-03-16T01:24:43;100142.91;;;6.82;100.00
45275;BME280;31019;43.780;25.948;2023-03-16T01:27:11;100140.66;;;6.79;100.00
45275;BME280;31019;43.780;25.948;2023-03-16T01:29:39;100142.31;;;6.86;100.00
45275;BME280;31019;43.780;25.948;2023-03-16T01:32:09;100150.22;;;6.86;100.00
45275;BME280;31019;43.780;25.948;2023-03-16T01:34:36;100149.53;;;6.71;100.00
45275;BME280;31019;43.780;25.948;2023-03-16T01:37:03;100144.31;;;6.78;100.00
45275;BME280;31019;43.780;25.948;2023-03-16T01:39:30;100142.91;;;6.82;100.00
45275;BME280;31019;43.780;25.948;2023-03-16T01:41:57;100151.38;;;6.71;100.00
45275;BME280;31019;43.780;25.948;2023-03-16T01:44:25;100152.94;;;6.65;100.00
45275;BME280;31019;43.780;25.948;2023-03-16T01:46:54;100159.63;;;6.61;100.00
45275;BME280;31019;43.780;25.948;2023-03-16T01:49:24;100163.47;;;6.58;100.00
45275;BME280;31019;43.780;25.948;2023-03-16T01:51:54;100164.78;;;6.69;100.00
45275;BME280;31019;43.780;25.948;2023-03-16T01:54:25;100162.28;;;6.61;100.00
45275;BME280;31019;43.780;25.948;2023-03-16T01:57:00;100161.84;;;6.57;100.00
45275;BME280;31019;43.780;25.948;2023-03-16T01:59:32;100168.88;;;6.50;100.00
45275;BME280;31019;43.780;25.948;2023-03-16T02:02:01;100161.81;;;6.51;100.00
45275;BME280;31019;43.780;25.948;2023-03-16T02:04:36;100166.47;;;6.83;100.00
45275;BME280;31019;43.780;25.948;2023-03-16T02:07:07;100160.09;;;6.71;100.00
45275;BME280;31019;43.780;25.948;2023-03-16T02:09:35;100173.69;;;6.68;100.00
45275;BME280;31019;43.780;25.948;2023-03-16T02:12:03;100176.56;;;6.73;100.00
45275;BME280;31019;43.780;25.948;2023-03-16T02:14:30;100178.34;;;6.66;100.00
45275;BME280;31019;43.780;25.948;2023-03-16T02:16:57;100185.41;;;6.59;100.00
45275;BME280;31019;43.780;25.948;2023-03-16T02:19:33;100186.28;;;6.66;100.00
45275;BME280;31019;43.780;25.948;2023-03-16T02:22:05;100185.00;;;6.62;100.00
45275;BME280;31019;43.780;25.948;2023-03-16T02:24:32;100192.31;;;6.60;100.00
45275;BME280;31019;43.780;25.948;2023-03-16T02:27:02;100198.97;;;6.56;100.00
45275;BME280;31019;43.780;25.948;2023-03-16T02:30:05;100190.91;;;6.64;100.00
45275;BME280;31019;43.780;25.948;2023-03-16T02:32:33;100190.06;;;6.57;100.00
45275;BME280;31019;43.780;25.948;2023-03-16T02:35:01;100193.34;;;6.65;100.00
45275;BME280;31019;43.780;25.948;2023-03-16T02:37:28;100208.28;;;6.52;100.00
45275;BME280;31019;43.780;25.948;2023-03-16T02:39:58;100209.00;;;6.67;100.00
45275;BME280;31019;43.780;25.948;2023-03-16T02:42:25;100212.75;;;6.79;100.00
45275;BME280;31019;43.780;25.948;2023-03-16T02:44:55;100219.22;;;6.77;100.00
45275;BME280;31019;43.780;25.948;2023-03-16T02:47:29;100221.28;;;6.81;100.00
45275;BME280;31019;43.780;25.948;2023-03-16T02:49:58;100226.72;;;6.73;100.00
45275;BME280;31019;43.780;25.948;2023-03-16T02:52:26;100224.72;;;6.75;100.00
45275;BME280;31019;43.780;25.948;2023-03-16T02:54:53;100219.94;;;6.64;100.00
45275;BME280;31019;43.780;25.948;2023-03-16T02:57:20;100214.19;;;6.54;100.00
45275;BME280;31019;43.780;25.948;2023-03-16T02:59:46;100221.91;;;6.55;100.00
45275;BME280;31019;43.780;25.948;2023-03-16T03:02:13;100230.19;;;6.80;100.00
45275;BME280;31019;43.780;25.948;2023-03-16T03:04:42;100229.63;;;6.85;100.00
45275;BME280;31019;43.780;25.948;2023-03-16T03:07:11;100232.66;;;6.82;100.00
45275;BME280;31019;43.780;25.948;2023-03-16T03:09:38;100253.34;;;6.78;100.00
45275;BME280;31019;43.780;25.948;2023-03-16T03:12:06;100246.50;;;6.84;100.00
45275;BME280;31019;43.780;25.948;2023-03-16T03:14:33;100245.94;;;6.95;100.00
45275;BME280;31019;43.780;25.948;2023-03-16T03:17:03;100251.78;;;6.84;100.00
45275;BME280;31019;43.780;25.948;2023-03-16T03:19:30;100240.22;;;6.92;100.00
45275;BME280;31019;43.780;25.948;2023-03-16T03:21:59;100250.66;;;7.00;100.00
45275;BME280;31019;43.780;25.948;2023-03-16T03:24:28;100255.91;;;6.93;100.00
45275;BME280;31019;43.780;25.948;2023-03-16T03:26:56;100256.31;;;6.97;100.00
45275;BME280;31019;43.780;25.948;2023-03-16T03:29:22;100262.56;;;6.89;100.00
45275;BME280;31019;43.780;25.948;2023-03-16T03:31:49;100271.75;;;6.93;100.00
45275;BME280;31019;43.780;25.948;2023-03-16T03:34:16;100270.47;;;6.89;100.00
45275;BME280;31019;43.780;25.948;2023-03-16T03:36:43;100278.63;;;6.94;100.00
45275;BME280;31019;43.780;25.948;2023-03-16T03:39:11;100284.16;;;6.99;100.00
45275;BME280;31019;43.780;25.948;2023-03-16T03:41:37;100275.31;;;6.85;100.00
45275;BME280;31019;43.780;25.948;2023-03-16T03:44:04;100289.38;;;6.93;100.00
45275;BME280;31019;43.780;25.948;2023-03-16T03:46:31;100291.00;;;6.87;100.00
45275;BME280;31019;43.780;25.948;2023-03-16T03:48:58;100284.44;;;6.83;100.00
45275;BME280;31019;43.780;25.948;2023-03-16T03:51:28;100295.03;;;6.89;100.00
45275;BME280;31019;43.780;25.948;2023-03-16T03:53:55;100288.19;;;6.95;100.00
45275;BME280;31019;43.780;25.948;2023-03-16T03:56:23;100298.13;;;6.93;100.00
45275;BME280;31019;43.780;25.948;2023-03-16T03:58:50;100297.75;;;6.96;100.00
45275;BME280;31019;43.780;25.948;2023-03-16T04:01:17;100297.59;;;7.04;100.00
45275;BME280;31019;43.780;25.948;2023-03-16T04:03:43;100313.63;;;7.03;100.00
45275;BME280;31019;43.780;25.948;2023-03-16T04:06:10;100323.81;;;7.06;100.00
45275;BME280;31019;43.780;25.948;2023-03-16T04:08:37;100311.81;;;7.03;100.00
45275;BME280;31019;43.780;25.948;2023-03-16T04:11:04;100322.56;;;7.02;100.00
45275;BME280;31019;43.780;25.948;2023-03-16T04:13:32;100318.72;;;7.04;100.00
45275;BME280;31019;43.780;25.948;2023-03-16T04:16:00;100303.53;;;7.13;100.00
45275;BME280;31019;43.780;25.948;2023-03-16T04:18:28;100312.28;;;7.14;100.00
45275;BME280;31019;43.780;25.948;2023-03-16T04:21:03;100323.47;;;7.16;100.00
45275;BME280;31019;43.780;25.948;2023-03-16T04:23:30;100330.03;;;6.98;100.00
45275;BME280;31019;43.780;25.948;2023-03-16T04:25:58;100329.19;;;6.91;100.00
45275;BME280;31019;43.780;25.948;2023-03-16T04:28:24;100344.22;;;6.91;100.00
45275;BME280;31019;43.780;25.948;2023-03-16T04:30:53;100346.84;;;6.91;100.00
45275;BME280;31019;43.780;25.948;2023-03-16T04:33:20;100351.88;;;6.85;100.00
45275;BME280;31019;43.780;25.948;2023-03-16T04:35:47;100352.88;;;7.06;100.00
45275;BME280;31019;43.780;25.948;2023-03-16T04:38:14;100355.41;;;7.21;100.00
45275;BME280;31019;43.780;25.948;2023-03-16T04:40:40;100347.25;;;7.16;100.00
45275;BME280;31019;43.780;25.948;2023-03-16T04:43:07;100358.22;;;7.19;100.00
45275;BME280;31019;43.780;25.948;2023-03-16T04:45:34;100354.31;;;7.37;100.00
45275;BME280;31019;43.780;25.948;2023-03-16T04:48:02;100383.06;;;6.75;100.00
45275;BME280;31019;43.780;25.948;2023-03-16T04:50:29;100387.59;;;6.81;100.00
45275;BME280;31019;43.780;25.948;2023-03-16T04:52:55;100392.03;;;6.59;100.00
45275;BME280;31019;43.780;25.948;2023-03-16T04:55:22;100398.38;;;6.65;100.00
45275;BME280;31019;43.780;25.948;2023-03-16T04:57:49;100399.88;;;6.53;100.00
45275;BME280;31019;43.780;25.948;2023-03-16T05:00:17;100404.19;;;6.54;100.00
45275;BME280;31019;43.780;25.948;2023-03-16T05:02:45;100427.38;;;6.43;100.00
45275;BME280;31019;43.780;25.948;2023-03-16T05:05:14;100424.84;;;6.72;100.00
45275;BME280;31019;43.780;25.948;2023-03-16T05:07:41;100424.25;;;6.33;100.00
45275;BME280;31019;43.780;25.948;2023-03-16T05:10:09;100428.91;;;6.53;100.00
45275;BME280;31019;43.780;25.948;2023-03-16T05:12:36;100438.88;;;6.72;100.00
45275;BME280;31019;43.780;25.948;2023-03-16T05:15:03;100441.19;;;6.60;100.00
45275;BME280;31019;43.780;25.948;2023-03-16T05:17:30;100450.88;;;7.18;100.00
45275;BME280;31019;43.780;25.948;2023-03-16T05:19:57;100446.53;;;6.31;100.00
45275;BME280;31019;43.780;25.948;2023-03-16T05:22:25;100453.19;;;6.27;100.00
45275;BME280;31019;43.780;25.948;2023-03-16T05:24:52;100456.09;;;6.53;100.00
45275;BME280;31019;43.780;25.948;2023-03-16T05:27:19;100467.06;;;6.35;100.00
45275;BME280;31019;43.780;25.948;2023-03-16T05:29:45;100468.72;;;6.73;100.00
45275;BME280;31019;43.780;25.948;2023-03-16T05:32:12;100477.44;;;6.37;100.00
45275;BME280;31019;43.780;25.948;2023-03-16T05:34:41;100478.38;;;6.00;100.00
45275;BME280;31019;43.780;25.948;2023-03-16T05:37:08;100475.13;;;6.63;100.00
45275;BME280;31019;43.780;25.948;2023-03-16T05:39:36;100474.00;;;6.36;100.00
45275;BME280;31019;43.780;25.948;2023-03-16T05:42:03;100480.00;;;6.30;100.00
45275;BME280;31019;43.780;25.948;2023-03-16T05:44:30;100481.22;;;5.90;100.00
45275;BME280;31019;43.780;25.948;2023-03-16T05:46:57;100486.59;;;5.82;100.00
45275;BME280;31019;43.780;25.948;2023-03-16T05:49:24;100495.84;;;6.15;100.00
45275;BME280;31019;43.780;25.948;2023-03-16T05:51:51;100491.44;;;6.52;100.00
45275;BME280;31019;43.780;25.948;2023-03-16T05:54:19;100494.22;;;5.77;100.00
45275;BME280;31019;43.780;25.948;2023-03-16T05:56:47;100488.31;;;5.89;100.00
45275;BME280;31019;43.780;25.948;2023-03-16T05:59:14;100492.66;;;6.71;100.00
45275;BME280;31019;43.780;25.948;2023-03-16T06:01:42;100496.72;;;6.08;100.00
45275;BME280;31019;43.780;25.948;2023-03-16T06:04:09;100490.09;;;5.97;100.00
45275;BME280;31019;43.780;25.948;2023-03-16T06:06:35;100498.00;;;5.59;100.00
45275;BME280;31019;43.780;25.948;2023-03-16T06:09:02;100487.59;;;5.66;100.00
45275;BME280;31019;43.780;25.948;2023-03-16T06:11:29;100497.00;;;6.13;100.00
45275;BME280;31019;43.780;25.948;2023-03-16T06:13:58;100500.41;;;5.69;100.00
45275;BME280;31019;43.780;25.948;2023-03-16T06:16:25;100497.31;;;5.80;100.00
45275;BME280;31019;43.780;25.948;2023-03-16T06:18:52;100506.28;;;5.71;100.00
45275;BME280;31019;43.780;25.948;2023-03-16T06:21:20;100506.09;;;5.58;100.00
45275;BME280;31019;43.780;25.948;2023-03-16T06:23:47;100508.19;;;5.62;100.00
45275;BME280;31019;43.780;25.948;2023-03-16T06:26:14;100517.44;;;5.58;100.00
45275;BME280;31019;43.780;25.948;2023-03-16T06:28:40;100514.28;;;6.30;100.00
45275;BME280;31019;43.780;25.948;2023-03-16T06:31:09;100529.47;;;5.61;100.00
45275;BME280;31019;43.780;25.948;2023-03-16T06:33:35;100528.13;;;5.42;100.00
45275;BME280;31019;43.780;25.948;2023-03-16T06:36:03;100536.09;;;5.34;100.00
45275;BME280;31019;43.780;25.948;2023-03-16T06:38:30;100541.50;;;5.32;100.00
45275;BME280;31019;43.780;25.948;2023-03-16T06:40:57;100554.63;;;5.40;100.00
45275;BME280;31019;43.780;25.948;2023-03-16T06:43:24;100565.53;;;5.98;100.00
45275;BME280;31019;43.780;25.948;2023-03-16T06:45:51;100561.19;;;5.44;100.00
45275;BME280;31019;43.780;25.948;2023-03-16T06:48:23;100567.00;;;5.40;100.00
45275;BME280;31019;43.780;25.948;2023-03-16T06:50:51;100572.03;;;5.72;100.00
45275;BME280;31019;43.780;25.948;2023-03-16T06:53:19;100563.59;;;5.31;100.00
45275;BME280;31019;43.780;25.948;2023-03-16T06:55:46;100576.28;;;5.50;100.00
45275;BME280;31019;43.780;25.948;2023-03-16T06:58:16;100584.59;;;5.62;100.00
45275;BME280;31019;43.780;25.948;2023-03-16T07:00:47;100597.63;;;5.10;100.00
45275;BME280;31019;43.780;25.948;2023-03-16T07:03:14;100590.66;;;5.17;100.00
45275;BME280;31019;43.780;25.948;2023-03-16T07:05:42;100600.00;;;4.96;100.00
45275;BME280;31019;43.780;25.948;2023-03-16T07:08:08;100597.84;;;5.00;100.00
45275;BME280;31019;43.780;25.948;2023-03-16T07:10:36;100612.81;;;4.99;100.00
45275;BME280;31019;43.780;25.948;2023-03-16T07:13:03;100615.75;;;5.04;100.00
45275;BME280;31019;43.780;25.948;2023-03-16T07:15:29;100633.38;;;4.96;100.00
45275;BME280;31019;43.780;25.948;2023-03-16T07:17:56;100633.03;;;4.99;100.00
45275;BME280;31019;43.780;25.948;2023-03-16T07:20:23;100643.09;;;4.95;100.00
45275;BME280;31019;43.780;25.948;2023-03-16T07:22:52;100646.19;;;5.07;100.00
45275;BME280;31019;43.780;25.948;2023-03-16T07:25:19;100648.22;;;5.28;100.00
45275;BME280;31019;43.780;25.948;2023-03-16T07:27:45;100653.22;;;4.75;100.00
45275;BME280;31019;43.780;25.948;2023-03-16T07:30:12;100649.72;;;4.83;100.00
45275;BME280;31019;43.780;25.948;2023-03-16T07:32:40;100656.47;;;5.25;100.00
45275;BME280;31019;43.780;25.948;2023-03-16T07:35:07;100648.03;;;4.98;100.00
45275;BME280;31019;43.780;25.948;2023-03-16T07:37:34;100658.97;;;5.18;100.00
45275;BME280;31019;43.780;25.948;2023-03-16T07:40:04;100654.41;;;5.04;100.00
45275;BME280;31019;43.780;25.948;2023-03-16T07:42:33;100653.59;;;5.03;100.00
45275;BME280;31019;43.780;25.948;2023-03-16T07:45:00;100659.53;;;5.05;100.00
45275;BME280;31019;43.780;25.948;2023-03-16T07:47:27;100666.22;;;5.16;100.00
45275;BME280;31019;43.780;25.948;2023-03-16T07:49:55;100667.91;;;5.09;100.00
45275;BME280;31019;43.780;25.948;2023-03-16T07:52:22;100672.63;;;5.14;100.00
45275;BME280;31019;43.780;25.948;2023-03-16T07:54:48;100677.97;;;4.97;100.00
45275;BME280;31019;43.780;25.948;2023-03-16T07:57:17;100676.50;;;4.87;100.00
45275;BME280;31019;43.780;25.948;2023-03-16T07:59:43;100676.41;;;5.11;100.00
45275;BME280;31019;43.780;25.948;2023-03-16T08:02:11;100689.56;;;5.19;100.00
45275;BME280;31019;43.780;25.948;2023-03-16T08:04:38;100684.72;;;5.00;100.00
45275;BME280;31019;43.780;25.948;2023-03-16T08:07:06;100684.59;;;4.85;100.00
45275;BME280;31019;43.780;25.948;2023-03-16T08:09:33;100691.28;;;4.96;100.00
45275;BME280;31019;43.780;25.948;2023-03-16T08:12:00;100696.22;;;4.99;100.00
45275;BME280;31019;43.780;25.948;2023-03-16T08:14:29;100701.13;;;5.02;100.00
45275;BME280;31019;43.780;25.948;2023-03-16T08:16:58;100695.19;;;5.16;100.00
45275;BME280;31019;43.780;25.948;2023-03-16T08:19:25;100698.16;;;5.13;100.00
45275;BME280;31019;43.780;25.948;2023-03-16T08:21:52;100703.63;;;5.03;100.00
45275;BME280;31019;43.780;25.948;2023-03-16T08:24:19;100700.81;;;5.05;100.00
45275;BME280;31019;43.780;25.948;2023-03-16T08:26:46;100705.09;;;5.06;100.00
45275;BME280;31019;43.780;25.948;2023-03-16T08:29:13;100711.84;;;5.09;100.00
45275;BME280;31019;43.780;25.948;2023-03-16T08:31:41;100713.50;;;5.01;100.00
45275;BME280;31019;43.780;25.948;2023-03-16T08:34:08;100719.44;;;4.95;100.00
45275;BME280;31019;43.780;25.948;2023-03-16T08:36:35;100722.72;;;5.05;100.00
45275;BME280;31019;43.780;25.948;2023-03-16T08:39:02;100718.88;;;5.08;100.00
45275;BME280;31019;43.780;25.948;2023-03-16T08:41:30;100720.94;;;5.37;100.00
45275;BME280;31019;43.780;25.948;2023-03-16T08:43:57;100728.50;;;5.32;100.00
45275;BME280;31019;43.780;25.948;2023-03-16T08:46:24;100727.09;;;5.21;100.00
45275;BME280;31019;43.780;25.948;2023-03-16T08:48:52;100730.03;;;5.26;100.00
45275;BME280;31019;43.780;25.948;2023-03-16T08:51:20;100726.84;;;5.39;100.00
45275;BME280;31019;43.780;25.948;2023-03-16T08:53:47;100721.94;;;5.36;100.00
45275;BME280;31019;43.780;25.948;2023-03-16T08:56:14;100721.66;;;5.85;100.00
45275;BME280;31019;43.780;25.948;2023-03-16T08:58:41;100727.53;;;5.33;100.00
45275;BME280;31019;43.780;25.948;2023-03-16T09:01:10;100728.94;;;5.52;100.00
45275;BME280;31019;43.780;25.948;2023-03-16T09:03:38;100732.22;;;5.15;100.00
45275;BME280;31019;43.780;25.948;2023-03-16T09:06:09;100734.66;;;5.16;100.00
45275;BME280;31019;43.780;25.948;2023-03-16T09:08:38;100739.13;;;5.55;100.00
45275;BME280;31019;43.780;25.948;2023-03-16T09:11:06;100742.31;;;5.42;100.00
45275;BME280;31019;43.780;25.948;2023-03-16T09:13:35;100740.56;;;5.26;100.00
45275;BME280;31019;43.780;25.948;2023-03-16T09:16:03;100735.94;;;5.28;100.00
45275;BME280;31019;43.780;25.948;2023-03-16T09:18:30;100744.00;;;5.66;100.00
45275;BME280;31019;43.780;25.948;2023-03-16T09:20:57;100746.69;;;5.58;100.00
45275;BME280;31019;43.780;25.948;2023-03-16T09:23:26;100743.84;;;5.28;100.00
45275;BME280;31019;43.780;25.948;2023-03-16T09:25:56;100751.25;;;5.33;100.00
45275;BME280;31019;43.780;25.948;2023-03-16T09:28:23;100760.97;;;5.24;100.00
45275;BME280;31019;43.780;25.948;2023-03-16T09:30:51;100759.03;;;5.18;100.00
45275;BME280;31019;43.780;25.948;2023-03-16T09:33:19;100762.00;;;5.15;100.00
45275;BME280;31019;43.780;25.948;2023-03-16T09:35:46;100767.59;;;5.12;100.00
45275;BME280;31019;43.780;25.948;2023-03-16T09:38:13;100772.34;;;5.17;100.00
45275;BME280;31019;43.780;25.948;2023-03-16T09:40:42;100775.63;;;5.27;100.00
45275;BME280;31019;43.780;25.948;2023-03-16T09:43:29;100773.72;;;5.83;100.00
45275;BME280;31019;43.780;25.948;2023-03-16T09:46:02;100777.25;;;5.36;100.00
45275;BME280;31019;43.780;25.948;2023-03-16T09:48:32;100785.94;;;5.45;100.00
45275;BME280;31019;43.780;25.948;2023-03-16T09:51:03;100790.03;;;5.47;100.00
45275;BME280;31019;43.780;25.948;2023-03-16T09:53:33;100793.50;;;5.48;100.00
45275;BME280;31019;43.780;25.948;2023-03-16T09:56:04;100794.88;;;5.27;100.00
45275;BME280;31019;43.780;25.948;2023-03-16T09:58:32;100801.50;;;5.15;100.00
45275;BME280;31019;43.780;25.948;2023-03-16T10:01:08;100802.44;;;5.31;100.00
45275;BME280;31019;43.780;25.948;2023-03-16T10:06:25;100809.72;;;5.60;100.00
45275;BME280;31019;43.780;25.948;2023-03-16T10:09:00;100804.47;;;5.60;100.00
45275;BME280;31019;43.780;25.948;2023-03-16T10:11:33;100805.34;;;5.52;100.00
45275;BME280;31019;43.780;25.948;2023-03-16T10:14:09;100811.63;;;5.43;100.00
45275;BME280;31019;43.780;25.948;2023-03-16T10:16:46;100812.75;;;5.48;100.00
45275;BME280;31019;43.780;25.948;2023-03-16T10:19:17;100821.13;;;5.52;100.00
45275;BME280;31019;43.780;25.948;2023-03-16T10:21:48;100820.09;;;5.69;100.00
45275;BME280;31019;43.780;25.948;2023-03-16T10:24:23;100818.78;;;5.65;100.00
45275;BME280;31019;43.780;25.948;2023-03-16T10:26:56;100815.09;;;5.74;100.00
45275;BME280;31019;43.780;25.948;2023-03-16T10:29:25;100825.16;;;5.79;100.00
45275;BME280;31019;43.780;25.948;2023-03-16T10:31:54;100819.81;;;5.95;100.00
45275;BME280;31019;43.780;25.948;2023-03-16T10:34:25;100814.34;;;5.66;100.00
45275;BME280;31019;43.780;25.948;2023-03-16T10:36:53;100820.53;;;5.81;100.00
45275;BME280;31019;43.780;25.948;2023-03-16T10:39:20;100829.28;;;5.73;100.00
45275;BME280;31019;43.780;25.948;2023-03-16T10:41:55;100824.47;;;5.93;100.00
45275;BME280;31019;43.780;25.948;2023-03-16T10:44:24;100829.03;;;6.00;100.00
45275;BME280;31019;43.780;25.948;2023-03-16T10:46:58;100832.31;;;6.02;100.00
45275;BME280;31019;43.780;25.948;2023-03-16T10:49:27;100828.38;;;5.97;100.00
45275;BME280;31019;43.780;25.948;2023-03-16T10:51:56;100824.78;;;5.90;100.00
45275;BME280;31019;43.780;25.948;2023-03-16T10:54:27;100823.94;;;5.98;100.00
45275;BME280;31019;43.780;25.948;2023-03-16T10:56:57;100818.00;;;5.96;100.00
45275;BME280;31019;43.780;25.948;2023-03-16T10:59:29;100821.47;;;5.96;100.00
45275;BME280;31019;43.780;25.948;2023-03-16T11:01:59;100821.59;;;6.03;100.00
45275;BME280;31019;43.780;25.948;2023-03-16T11:04:30;100821.41;;;6.05;100.00
45275;BME280;31019;43.780;25.948;2023-03-16T11:06:57;100816.19;;;6.28;100.00
45275;BME280;31019;43.780;25.948;2023-03-16T11:09:30;100820.97;;;6.24;100.00
45275;BME280;31019;43.780;25.948;2023-03-16T11:12:00;100817.28;;;6.33;100.00
45275;BME280;31019;43.780;25.948;2023-03-16T11:14:42;100817.34;;;6.25;100.00
45275;BME280;31019;43.780;25.948;2023-03-16T11:17:11;100824.19;;;6.11;100.00
45275;BME280;31019;43.780;25.948;2023-03-16T11:19:46;100823.50;;;6.17;100.00
45275;BME280;31019;43.780;25.948;2023-03-16T11:22:17;100826.88;;;6.26;100.00
45275;BME280;31019;43.780;25.948;2023-03-16T11:24:49;100832.31;;;6.02;100.00
45275;BME280;31019;43.780;25.948;2023-03-16T11:27:22;100831.00;;;6.06;100.00
45275;BME280;31019;43.780;25.948;2023-03-16T11:30:00;100818.00;;;5.96;100.00
45275;BME280;31019;43.780;25.948;2023-03-16T11:32:32;100825.38;;;6.09;100.00
45275;BME280;31019;43.780;25.948;2023-03-16T11:35:01;100828.78;;;6.17;100.00
45275;BME280;31019;43.780;25.948;2023-03-16T11:37:46;100832.38;;;6.16;100.00
45275;BME280;31019;43.780;25.948;2023-03-16T11:40:30;100835.00;;;6.25;100.00
45275;BME280;31019;43.780;25.948;2023-03-16T11:43:15;100836.81;;;6.24;100.00
45275;BME280;31019;43.780;25.948;2023-03-16T11:45:49;100836.81;;;6.24;100.00
45275;BME280;31019;43.780;25.948;2023-03-16T11:48:31;100843.06;;;6.23;100.00
45275;BME280;31019;43.780;25.948;2023-03-16T11:51:09;100843.94;;;6.15;100.00
45275;BME280;31019;43.780;25.948;2023-03-16T11:53:51;100842.78;;;6.18;100.00
45275;BME280;31019;43.780;25.948;2023-03-16T11:56:28;100840.31;;;6.16;100.00
45275;BME280;31019;43.780;25.948;2023-03-16T12:01:57;100842.09;;;6.24;100.00
45275;BME280;31019;43.780;25.948;2023-03-16T12:04:39;100848.22;;;6.16;100.00
45275;BME280;31019;43.780;25.948;2023-03-16T12:07:28;100860.66;;;6.31;100.00
45275;BME280;31019;43.780;25.948;2023-03-16T12:10:11;100862.03;;;6.27;100.00
45275;BME280;31019;43.780;25.948;2023-03-16T12:12:49;100851.31;;;6.51;100.00
45275;BME280;31019;43.780;25.948;2023-03-16T12:15:31;100861.38;;;6.25;100.00
45275;BME280;31019;43.780;25.948;2023-03-16T12:18:10;100858.72;;;6.25;100.00
45275;BME280;31019;43.780;25.948;2023-03-16T12:20:44;100858.63;;;6.41;100.00
45275;BME280;31019;43.780;25.948;2023-03-16T12:23:15;100864.69;;;6.18;100.00
45275;BME280;31019;43.780;25.948;2023-03-16T12:25:48;100865.81;;;6.24;100.00
45275;BME280;31019;43.780;25.948;2023-03-16T12:28:20;100874.91;;;6.22;100.00
45275;BME280;31019;43.780;25.948;2023-03-16T12:30:54;100876.50;;;6.31;100.00
45275;BME280;31019;43.780;25.948;2023-03-16T12:33:33;100869.88;;;6.35;100.00
45275;BME280;31019;43.780;25.948;2023-03-16T12:36:07;100878.59;;;6.35;100.00
45275;BME280;31019;43.780;25.948;2023-03-16T12:38:43;100879.53;;;6.19;100.00
45275;BME280;31019;43.780;25.948;2023-03-16T12:41:18;100890.06;;;6.19;100.00
45275;BME280;31019;43.780;25.948;2023-03-16T12:43:56;100886.75;;;6.26;100.00
45275;BME280;31019;43.780;25.948;2023-03-16T12:46:31;100880.97;;;6.30;100.00
45275;BME280;31019;43.780;25.948;2023-03-16T12:49:04;100893.19;;;6.54;100.00
45275;BME280;31019;43.780;25.948;2023-03-16T12:51:32;100890.00;;;6.59;100.00
45275;BME280;31019;43.780;25.948;2023-03-16T12:54:00;100886.88;;;6.32;100.00
45275;BME280;31019;43.780;25.948;2023-03-16T12:56:30;100892.19;;;6.24;100.00